Time;durP1;ratioP1;P1;durP2;ratioP2;P2;SDS_P1;SDS_P2;PMS_P1;PMS_P2;Temp;Humidity;BMP_temperature;BMP_pressure;BME280_temperature;BME280_humidity;BME280_pressure;Samples;Min_cycle;Max_cycle;Signal;HPM_P1;HPM_P2
2021/12/30 00:00:29;;;;;;;7.73;5.07;;;7.70;99.90;;;;;;5069578;28;20774;-70
2021/12/30 00:02:56;;;;;;;7.47;5.40;;;7.80;99.90;;;;;;5069473;28;20499;-72
2021/12/30 00:05:23;;;;;;;6.80;4.10;;;7.70;99.90;;;;;;5069585;28;20472;-71
2021/12/30 00:07:50;;;;;;;6.03;4.57;;;7.60;99.90;;;;;;5069366;28;20456;-70
2021/12/30 00:10:19;;;;;;;5.83;4.10;;;7.50;99.90;;;;;;5068916;28;20958;-70
2021/12/30 00:12:47;;;;;;;7.13;4.37;;;7.30;99.90;;;;;;5068626;28;21004;-70
2021/12/30 00:15:14;;;;;;;6.37;3.80;;;7.20;99.90;;;;;;5069259;28;20556;-71
2021/12/30 00:17:41;;;;;;;5.27;3.67;;;7.20;99.90;;;;;;5069436;28;20458;-70
2021/12/30 00:20:10;;;;;;;5.77;3.40;;;7.10;99.90;;;;;;5069559;28;20503;-71
2021/12/30 00:22:37;;;;;;;7.30;4.30;;;7.10;99.90;;;;;;5068691;28;20839;-70
2021/12/30 00:25:06;;;;;;;6.63;4.50;;;7.00;99.90;;;;;;5068215;28;20477;-72
2021/12/30 00:27:35;;;;;;;8.20;3.63;;;7.00;99.90;;;;;;5069198;28;20493;-71
2021/12/30 00:30:02;;;;;;;5.80;3.63;;;6.80;99.90;;;;;;5069360;28;20450;-70
2021/12/30 00:32:29;;;;;;;5.40;3.50;;;6.90;99.90;;;;;;5069371;28;20447;-69
2021/12/30 00:34:56;;;;;;;5.33;3.10;;;7.00;99.90;;;;;;5069233;28;20445;-71
2021/12/30 00:37:23;;;;;;;6.43;3.67;;;7.00;99.90;;;;;;5069000;28;20442;-70
2021/12/30 00:39:50;;;;;;;7.37;3.90;;;6.90;99.90;;;;;;5069077;28;21010;-68
2021/12/30 00:42:17;;;;;;;6.40;4.23;;;6.90;99.90;;;;;;5069118;28;20485;-69
2021/12/30 00:44:46;;;;;;;5.20;3.53;;;7.00;99.90;;;;;;5068795;28;20459;-70
2021/12/30 00:47:13;;;;;;;5.23;3.23;;;7.00;99.90;;;;;;5069063;28;20453;-70
2021/12/30 00:49:40;;;;;;;5.90;3.50;;;6.90;99.90;;;;;;5069123;28;20457;-72
2021/12/30 00:52:07;;;;;;;5.97;3.57;;;6.90;99.90;;;;;;5068739;28;20454;-72
2021/12/30 00:54:34;;;;;;;5.80;3.40;;;6.90;99.90;;;;;;5068663;28;20546;-69
2021/12/30 00:57:01;;;;;;;5.30;3.50;;;7.00;99.90;;;;;;5068889;28;20543;-71
2021/12/30 00:59:28;;;;;;;6.10;3.60;;;7.00;99.90;;;;;;5069013;28;20461;-70
2021/12/30 01:01:56;;;;;;;5.77;3.30;;;7.10;99.90;;;;;;5068935;28;20492;-71
2021/12/30 01:04:24;;;;;;;5.60;3.50;;;7.10;99.90;;;;;;5068816;28;20507;-73
2021/12/30 01:06:52;;;;;;;5.20;3.50;;;7.10;99.90;;;;;;5068589;28;20966;-69
2021/12/30 01:09:19;;;;;;;6.30;3.13;;;7.00;99.90;;;;;;5068832;28;20753;-70
2021/12/30 01:11:46;;;;;;;5.80;2.50;;;7.00;99.90;;;;;;5068858;28;20458;-72
2021/12/30 01:14:18;;;;;;;5.37;3.10;;;7.10;99.90;;;;;;5068815;28;20502;-70
2021/12/30 01:16:48;;;;;;;4.83;2.60;;;7.20;99.90;;;;;;5068840;28;20536;-71
2021/12/30 01:19:42;;;;;;;4.63;2.90;;;7.10;99.90;;;;;;5068845;28;20465;-73
2021/12/30 01:22:11;;;;;;;4.60;3.00;;;7.10;99.90;;;;;;5069093;28;20477;-70
2021/12/30 01:24:38;;;;;;;6.57;3.50;;;7.10;99.90;;;;;;5071853;28;20508;-71
2021/12/30 01:27:06;;;;;;;5.80;2.70;;;7.10;99.90;;;;;;5071132;28;20811;-70
2021/12/30 01:29:33;;;;;;;4.83;2.90;;;7.20;99.90;;;;;;5072289;28;20453;-70
2021/12/30 01:32:00;;;;;;;5.47;3.30;;;7.20;99.90;;;;;;5072296;28;20501;-70
2021/12/30 01:34:29;;;;;;;4.90;3.00;;;7.20;99.90;;;;;;5072028;28;20471;-71
2021/12/30 01:36:59;;;;;;;5.17;3.03;;;7.20;99.90;;;;;;5072331;28;20462;-70
2021/12/30 01:39:26;;;;;;;5.63;2.90;;;7.20;99.90;;;;;;5071417;28;21004;-70
2021/12/30 01:41:53;;;;;;;5.13;3.13;;;7.00;99.90;;;;;;5066515;28;20480;-71
2021/12/30 01:44:21;;;;;;;4.80;2.77;;;6.90;99.90;;;;;;5054828;28;20446;-70
2021/12/30 01:46:50;;;;;;;5.90;3.37;;;6.90;99.90;;;;;;5072213;28;20472;-72
2021/12/30 01:49:17;;;;;;;5.40;2.87;;;7.00;99.90;;;;;;5071892;28;20512;-72
2021/12/30 01:51:46;;;;;;;4.37;2.90;;;7.00;99.90;;;;;;5071310;28;20485;-72
2021/12/30 01:54:14;;;;;;;5.37;2.73;;;7.00;99.90;;;;;;5071066;28;21006;-70
2021/12/30 01:56:41;;;;;;;6.17;2.80;;;7.00;99.90;;;;;;5070957;28;20472;-72
2021/12/30 01:59:09;;;;;;;4.90;3.07;;;6.90;99.90;;;;;;5071448;28;20458;-70
2021/12/30 02:01:36;;;;;;;5.23;3.17;;;7.00;99.90;;;;;;5071672;28;20454;-70
2021/12/30 02:04:04;;;;;;;6.00;3.20;;;6.90;99.90;;;;;;5071101;28;20487;-73
2021/12/30 02:06:31;;;;;;;6.17;2.73;;;7.00;99.90;;;;;;5071371;28;20515;-71
2021/12/30 02:09:00;;;;;;;5.83;2.90;;;7.00;99.90;;;;;;5070974;28;20462;-69
2021/12/30 02:11:28;;;;;;;4.10;2.60;;;6.40;99.90;;;;;;5071050;28;20459;-70
2021/12/30 02:13:55;;;;;;;5.00;3.00;;;7.10;99.90;;;;;;5070578;28;20451;-70
2021/12/30 02:16:22;;;;;;;5.03;2.40;;;7.20;99.90;;;;;;5070516;28;20504;-71
2021/12/30 02:18:51;;;;;;;5.00;2.50;;;7.20;99.90;;;;;;5071569;28;20814;-70
2021/12/30 02:21:20;;;;;;;5.47;3.27;;;7.20;99.90;;;;;;5071265;28;20455;-71
2021/12/30 02:23:47;;;;;;;4.63;2.77;;;7.30;99.90;;;;;;5070486;28;20494;-71
2021/12/30 02:26:16;;;;;;;4.53;2.43;;;7.40;99.90;;;;;;5070774;28;20478;-70
2021/12/30 02:28:44;;;;;;;4.30;2.50;;;7.40;99.90;;;;;;5071036;28;20987;-70
2021/12/30 02:31:14;;;;;;;4.17;2.33;;;7.50;99.90;;;;;;5070613;28;20458;-70
2021/12/30 02:33:41;;;;;;;4.20;2.10;;;7.40;99.90;;;;;;5070517;28;20509;-70
2021/12/30 02:36:09;;;;;;;4.57;2.53;;;7.40;99.90;;;;;;5070737;28;20965;-69
2021/12/30 02:38:42;;;;;;;5.07;2.63;;;7.40;99.90;;;;;;5070569;28;20487;-70
2021/12/30 02:41:14;;;;;;;5.90;3.13;;;7.40;99.90;;;;;;5070797;28;20557;-72
2021/12/30 02:43:41;;;;;;;4.50;3.03;;;7.50;99.90;;;;;;5070623;28;20901;-70
2021/12/30 02:46:08;;;;;;;5.70;3.00;;;7.50;99.90;;;;;;5070996;28;21026;-71
2021/12/30 02:48:37;;;;;;;6.90;2.70;;;7.50;99.90;;;;;;5070664;28;20884;-71
2021/12/30 02:51:06;;;;;;;5.70;3.30;;;7.60;99.90;;;;;;5070145;28;20484;-70
2021/12/30 02:53:34;;;;;;;4.97;2.70;;;7.70;99.90;;;;;;5070112;28;20480;-71
2021/12/30 02:56:03;;;;;;;4.33;2.50;;;7.70;99.90;;;;;;5070771;28;20479;-69
2021/12/30 02:58:31;;;;;;;5.13;3.00;;;7.60;99.90;;;;;;5070667;28;20467;-70
2021/12/30 03:01:01;;;;;;;5.10;2.83;;;7.60;99.90;;;;;;5070638;28;20497;-71
2021/12/30 03:03:28;;;;;;;5.50;2.70;;;7.60;99.90;;;;;;5070263;28;21017;-73
2021/12/30 03:06:00;;;;;;;4.00;2.00;;;7.60;99.90;;;;;;5069959;28;20471;-70
2021/12/30 03:08:27;;;;;;;4.60;3.13;;;7.60;99.90;;;;;;5070198;28;20460;-71
2021/12/30 03:10:55;;;;;;;4.23;2.73;;;7.60;99.90;;;;;;5069259;28;20459;-70
2021/12/30 03:13:30;;;;;;;4.03;2.47;;;7.70;99.90;;;;;;5069832;28;20513;-70
2021/12/30 03:15:57;;;;;;;5.20;3.33;;;7.70;99.90;;;;;;5069898;28;20843;-69
2021/12/30 03:18:24;;;;;;;5.47;2.40;;;7.70;99.90;;;;;;5070259;28;20444;-71
2021/12/30 03:20:52;;;;;;;6.80;3.30;;;7.80;99.90;;;;;;5070376;28;20513;-71
2021/12/30 03:23:19;;;;;;;4.90;2.63;;;7.70;99.90;;;;;;5070180;28;20520;-72
2021/12/30 03:25:46;;;;;;;5.10;2.63;;;7.70;99.90;;;;;;5070080;28;20479;-69
2021/12/30 03:28:13;;;;;;;4.80;2.97;;;7.80;99.90;;;;;;5070310;28;21114;-71
2021/12/30 03:30:41;;;;;;;4.40;2.10;;;7.90;99.90;;;;;;5069932;28;20463;-73
2021/12/30 03:33:08;;;;;;;4.20;2.50;;;7.90;99.90;;;;;;5069898;28;20759;-70
2021/12/30 03:35:36;;;;;;;5.97;2.87;;;7.90;99.90;;;;;;5069799;28;20960;-69
2021/12/30 03:38:04;;;;;;;5.63;2.90;;;7.90;99.90;;;;;;5070522;28;20466;-70
2021/12/30 03:40:31;;;;;;;5.90;3.10;;;7.80;99.90;;;;;;5069682;28;20517;-71
2021/12/30 03:42:58;;;;;;;6.73;3.07;;;7.80;99.90;;;;;;5068858;28;20492;-71
2021/12/30 03:45:25;;;;;;;4.70;2.73;;;7.90;99.90;;;;;;5068282;28;20480;-70
2021/12/30 03:47:54;;;;;;;4.77;2.30;;;8.00;99.90;;;;;;5068782;28;20452;-71
2021/12/30 03:50:23;;;;;;;4.73;2.80;;;8.00;99.90;;;;;;5069246;28;20460;-69
2021/12/30 03:52:54;;;;;;;4.57;2.50;;;8.00;99.90;;;;;;5069712;28;20535;-72
2021/12/30 03:55:24;;;;;;;5.93;2.80;;;8.00;99.90;;;;;;5068816;28;20484;-70
2021/12/30 03:57:52;;;;;;;4.30;2.43;;;8.10;99.90;;;;;;5069729;28;20448;-71
2021/12/30 04:00:21;;;;;;;4.50;2.53;;;8.10;99.90;;;;;;5069140;28;20953;-72
2021/12/30 04:02:48;;;;;;;5.97;3.00;;;8.20;99.90;;;;;;5069444;28;20483;-70
2021/12/30 04:05:17;;;;;;;5.70;2.53;;;8.00;99.90;;;;;;5069299;28;20521;-70
2021/12/30 04:07:44;;;;;;;4.80;2.70;;;8.00;99.90;;;;;;5069351;28;20452;-71
2021/12/30 04:10:13;;;;;;;4.57;2.70;;;8.00;99.90;;;;;;5069589;28;20506;-72
2021/12/30 04:12:40;;;;;;;5.13;3.07;;;8.10;99.90;;;;;;5069545;28;20466;-71
2021/12/30 04:15:09;;;;;;;7.50;2.70;;;7.90;99.90;;;;;;5068971;28;20525;-72
2021/12/30 04:17:36;;;;;;;4.90;2.60;;;7.80;99.90;;;;;;5069152;28;20479;-72
2021/12/30 04:20:05;;;;;;;4.30;2.53;;;7.70;99.90;;;;;;5068797;28;20513;-71
2021/12/30 04:22:33;;;;;;;4.23;2.60;;;7.70;99.90;;;;;;5068562;28;20480;-70
2021/12/30 04:25:00;;;;;;;5.10;2.67;;;7.60;99.90;;;;;;5068578;28;20530;-70
2021/12/30 04:27:27;;;;;;;4.40;2.70;;;7.60;99.90;;;;;;5068672;28;20969;-70
2021/12/30 04:29:54;;;;;;;4.73;2.60;;;7.50;99.90;;;;;;5069288;28;20499;-72
2021/12/30 04:32:21;;;;;;;4.57;2.60;;;7.60;99.90;;;;;;5068799;28;20463;-70
2021/12/30 04:34:48;;;;;;;5.10;2.80;;;7.70;99.90;;;;;;5068775;28;20471;-72
2021/12/30 04:37:15;;;;;;;4.20;2.40;;;7.70;99.90;;;;;;5069085;28;20460;-72
2021/12/30 04:39:44;;;;;;;4.30;2.43;;;7.80;99.90;;;;;;5068744;28;20453;-71
2021/12/30 04:42:11;;;;;;;6.67;2.93;;;7.90;99.90;;;;;;5068021;28;20505;-70
2021/12/30 04:44:38;;;;;;;4.53;2.50;;;7.80;99.90;;;;;;5068825;28;20495;-70
2021/12/30 04:47:06;;;;;;;4.67;2.80;;;7.80;99.90;;;;;;5068786;28;20448;-70
2021/12/30 04:49:33;;;;;;;4.83;3.03;;;7.80;99.90;;;;;;5068278;28;20455;-70
2021/12/30 04:52:01;;;;;;;5.13;2.70;;;7.90;99.90;;;;;;5068239;28;21002;-71
2021/12/30 04:54:28;;;;;;;6.93;2.80;;;8.00;99.90;;;;;;5068538;28;20492;-69
2021/12/30 04:56:57;;;;;;;4.70;2.90;;;8.10;99.90;;;;;;5068593;28;20588;-72
2021/12/30 04:59:24;;;;;;;4.73;2.90;;;8.20;99.90;;;;;;5072794;28;20461;-72
2021/12/30 05:01:51;;;;;;;4.80;2.93;;;8.20;99.90;;;;;;5072134;28;21391;-69
2021/12/30 05:04:18;;;;;;;5.27;3.10;;;8.40;99.90;;;;;;5072216;28;20495;-71
2021/12/30 05:06:45;;;;;;;5.40;3.00;;;8.40;99.90;;;;;;5072513;28;20451;-71
2021/12/30 05:09:12;;;;;;;4.47;2.43;;;8.20;99.90;;;;;;5072902;28;20447;-71
2021/12/30 05:11:41;;;;;;;4.97;2.67;;;8.20;99.90;;;;;;5072470;28;20880;-70
2021/12/30 05:14:11;;;;;;;5.17;2.40;;;8.30;99.90;;;;;;5072652;28;20537;-70
2021/12/30 05:16:38;;;;;;;4.40;2.47;;;8.40;99.90;;;;;;5072212;28;20463;-72
2021/12/30 05:19:06;;;;;;;5.37;2.73;;;8.50;99.90;;;;;;5072173;28;20464;-71
2021/12/30 05:21:33;;;;;;;5.07;3.10;;;8.60;99.90;;;;;;5072364;28;20857;-71
2021/12/30 05:24:00;;;;;;;5.50;3.00;;;8.50;99.90;;;;;;5072455;28;20489;-71
2021/12/30 05:26:29;;;;;;;6.67;2.67;;;8.50;99.90;;;;;;5071024;28;20451;-73
2021/12/30 05:28:56;;;;;;;6.50;2.90;;;8.60;99.90;;;;;;5072221;28;20816;-73
2021/12/30 05:31:24;;;;;;;5.20;2.80;;;8.50;99.90;;;;;;5072479;28;20451;-72
2021/12/30 05:33:52;;;;;;;5.00;3.47;;;8.50;99.90;;;;;;5071813;28;20456;-70
2021/12/30 05:36:19;;;;;;;8.20;3.70;;;8.30;99.90;;;;;;5071842;28;21274;-71
2021/12/30 05:38:47;;;;;;;5.90;3.20;;;8.30;99.90;;;;;;5071553;28;20456;-71
2021/12/30 05:41:14;;;;;;;5.70;2.90;;;8.30;99.90;;;;;;5071670;28;21224;-71
2021/12/30 05:43:41;;;;;;;6.17;3.13;;;8.40;99.90;;;;;;5071753;28;20495;-71
2021/12/30 05:46:08;;;;;;;4.90;2.83;;;8.40;99.90;;;;;;5071238;28;20464;-72
2021/12/30 05:48:37;;;;;;;4.97;2.87;;;8.50;99.90;;;;;;5070670;28;20518;-71
2021/12/30 05:51:04;;;;;;;5.63;3.00;;;8.60;99.90;;;;;;5070290;28;21107;-71
2021/12/30 05:53:31;;;;;;;5.40;3.13;;;8.50;99.90;;;;;;5070869;28;20549;-69
2021/12/30 05:55:59;;;;;;;5.43;2.67;;;8.40;99.90;;;;;;5070957;28;20474;-71
2021/12/30 05:58:26;;;;;;;4.60;2.00;;;8.30;99.90;;;;;;5071786;28;20507;-71
2021/12/30 06:00:53;;;;;;;3.87;1.60;;;8.30;99.90;;;;;;5071449;28;20701;-71
2021/12/30 06:03:21;;;;;;;5.00;2.47;;;8.30;99.90;;;;;;5070955;28;20491;-69
2021/12/30 06:05:51;;;;;;;3.80;1.63;;;8.20;99.90;;;;;;5069674;28;20586;-71
2021/12/30 06:08:18;;;;;;;4.10;1.67;;;8.20;99.90;;;;;;5068711;28;20956;-72
2021/12/30 06:10:45;;;;;;;3.63;1.43;;;8.20;99.90;;;;;;5068882;28;20456;-71
2021/12/30 06:13:13;;;;;;;3.60;1.80;;;8.20;99.90;;;;;;5065147;28;20447;-70
2021/12/30 06:15:42;;;;;;;4.00;1.97;;;8.20;99.90;;;;;;5051420;28;20484;-69
2021/12/30 06:18:09;;;;;;;3.87;1.80;;;8.20;99.90;;;;;;5051601;28;20453;-70
2021/12/30 06:20:36;;;;;;;3.67;1.53;;;8.20;99.90;;;;;;5051565;28;20461;-70
2021/12/30 06:23:05;;;;;;;4.10;1.70;;;8.20;99.90;;;;;;5050043;28;20954;-70
2021/12/30 06:25:32;;;;;;;3.40;1.50;;;8.10;99.90;;;;;;5050540;28;20481;-69
2021/12/30 06:27:59;;;;;;;3.80;1.40;;;8.20;99.90;;;;;;5050604;28;20452;-70
2021/12/30 06:30:26;;;;;;;5.00;1.30;;;8.20;99.90;;;;;;5051541;28;20473;-72
2021/12/30 06:32:53;;;;;;;5.63;1.83;;;8.20;99.90;;;;;;5050866;28;20954;-70
2021/12/30 06:35:22;;;;;;;3.70;1.70;;;8.20;99.90;;;;;;5051163;28;20996;-70
2021/12/30 06:37:50;;;;;;;3.97;1.97;;;8.30;99.90;;;;;;5050833;28;20489;-70
2021/12/30 06:40:20;;;;;;;3.97;1.50;;;8.40;99.90;;;;;;5050852;28;20453;-68
2021/12/30 06:42:47;;;;;;;3.90;1.70;;;8.20;99.90;;;;;;5051009;28;20456;-70
2021/12/30 06:45:14;;;;;;;4.87;2.20;;;8.20;99.90;;;;;;5065708;28;20568;-69
2021/12/30 06:47:41;;;;;;;3.73;1.80;;;8.20;99.90;;;;;;5057683;28;21105;-71
2021/12/30 06:50:13;;;;;;;3.73;1.70;;;8.30;99.90;;;;;;5068091;28;20477;-70
2021/12/30 06:52:41;;;;;;;4.10;1.63;;;8.20;99.90;;;;;;5057378;28;20453;-70
2021/12/30 06:55:09;;;;;;;5.13;1.90;;;8.20;99.90;;;;;;5059869;28;21011;-71
2021/12/30 06:57:38;;;;;;;3.57;1.80;;;8.20;99.90;;;;;;5071000;28;20851;-71
2021/12/30 07:00:09;;;;;;;7.07;2.40;;;8.20;99.90;;;;;;5069394;28;20603;-69
2021/12/30 07:02:36;;;;;;;5.63;2.40;;;7.90;99.90;;;;;;5070499;28;20452;-70
2021/12/30 07:05:04;;;;;;;4.40;1.97;;;7.80;99.90;;;;;;5070258;28;20563;-70
2021/12/30 07:07:31;;;;;;;4.07;2.20;;;8.00;99.90;;;;;;5060658;28;20457;-70
2021/12/30 07:09:58;;;;;;;5.07;3.10;;;8.10;99.90;;;;;;5049128;28;20463;-70
2021/12/30 07:12:25;;;;;;;4.97;2.37;;;8.10;99.90;;;;;;5063092;28;20451;-71
2021/12/30 07:14:56;;;;;;;5.10;2.83;;;8.00;99.90;;;;;;5070399;28;20436;-71
2021/12/30 07:17:23;;;;;;;5.77;3.20;;;8.10;99.90;;;;;;5062849;28;20450;-70
2021/12/30 07:19:50;;;;;;;4.50;2.67;;;7.90;99.90;;;;;;5049965;28;20457;-71
2021/12/30 07:22:17;;;;;;;7.43;3.07;;;6.80;99.90;;;;;;5062969;28;20995;-69
2021/12/30 07:24:44;;;;;;;5.27;2.57;;;8.20;99.90;;;;;;5063938;28;20491;-70
2021/12/30 07:27:11;;;;;;;6.23;3.23;;;8.10;99.90;;;;;;5070121;28;20460;-69
2021/12/30 07:29:38;;;;;;;6.63;3.10;;;8.20;99.90;;;;;;5069819;28;20445;-70
2021/12/30 07:32:07;;;;;;;5.30;2.60;;;8.20;99.90;;;;;;5069983;28;20451;-72
2021/12/30 07:34:34;;;;;;;4.20;2.17;;;8.20;99.90;;;;;;5068701;28;20451;-69
2021/12/30 07:37:03;;;;;;;4.67;2.70;;;8.20;99.90;;;;;;5067879;28;20491;-70
2021/12/30 07:39:30;;;;;;;4.73;2.37;;;8.30;99.90;;;;;;5068355;28;20464;-71
2021/12/30 07:41:57;;;;;;;3.73;2.00;;;8.30;99.90;;;;;;5069010;28;20494;-70
2021/12/30 07:44:24;;;;;;;4.10;2.00;;;8.40;99.90;;;;;;5068227;28;20514;-70
2021/12/30 07:46:51;;;;;;;4.37;1.77;;;8.40;99.90;;;;;;5068110;28;20537;-72
2021/12/30 07:49:20;;;;;;;4.47;2.03;;;8.40;99.90;;;;;;5069317;28;20504;-70
2021/12/30 07:51:47;;;;;;;3.60;1.70;;;8.50;99.90;;;;;;5069870;28;20884;-70
2021/12/30 07:54:15;;;;;;;7.60;2.10;;;8.50;99.90;;;;;;5068824;28;20886;-69
2021/12/30 07:56:42;;;;;;;5.13;2.70;;;8.50;99.90;;;;;;5069648;28;20480;-70
2021/12/30 07:59:09;;;;;;;6.03;2.20;;;8.40;99.90;;;;;;5069901;28;20459;-70
2021/12/30 08:01:37;;;;;;;5.50;1.83;;;8.20;99.90;;;;;;5069566;28;20483;-70
2021/12/30 08:04:05;;;;;;;4.60;1.77;;;8.30;99.90;;;;;;5069480;28;20547;-71
2021/12/30 08:06:35;;;;;;;3.83;1.90;;;8.30;99.90;;;;;;5069592;28;20479;-69
2021/12/30 08:09:02;;;;;;;4.90;1.73;;;8.30;99.90;;;;;;5069534;28;20456;-71
2021/12/30 08:11:29;;;;;;;4.70;2.23;;;8.10;99.90;;;;;;5069586;28;20456;-69
2021/12/30 08:13:59;;;;;;;4.10;1.87;;;8.20;99.90;;;;;;5069235;28;20464;-70
2021/12/30 08:16:26;;;;;;;4.37;2.03;;;8.00;99.90;;;;;;5068945;28;20995;-72
2021/12/30 08:18:53;;;;;;;3.90;1.63;;;8.20;99.90;;;;;;5068834;28;20463;-70
2021/12/30 08:21:20;;;;;;;4.03;1.37;;;8.40;99.90;;;;;;5069163;28;20460;-70
2021/12/30 08:23:51;;;;;;;5.40;2.33;;;8.40;99.90;;;;;;5068937;28;20555;-73
2021/12/30 08:26:19;;;;;;;4.70;1.83;;;8.30;99.90;;;;;;5067708;28;20584;-71
2021/12/30 08:28:46;;;;;;;5.53;2.00;;;8.50;99.90;;;;;;5068998;28;20869;-71
2021/12/30 08:31:14;;;;;;;6.80;2.40;;;8.60;99.90;;;;;;5068919;28;20457;-69
2021/12/30 08:33:41;;;;;;;5.97;3.43;;;8.50;99.90;;;;;;5068325;28;20472;-67
2021/12/30 08:36:08;;;;;;;6.70;2.67;;;8.60;99.90;;;;;;5068988;28;20472;-68
2021/12/30 08:38:35;;;;;;;6.30;2.97;;;8.70;99.90;;;;;;5069058;28;20433;-69
2021/12/30 08:41:04;;;;;;;5.00;2.73;;;8.70;99.90;;;;;;5068725;28;20457;-69
2021/12/30 08:43:31;;;;;;;6.60;2.57;;;8.70;99.90;;;;;;5069219;28;20448;-69
2021/12/30 08:45:58;;;;;;;4.30;2.37;;;8.70;99.90;;;;;;5068549;28;20503;-69
2021/12/30 08:48:25;;;;;;;8.33;2.30;;;8.60;99.90;;;;;;5067830;28;20452;-70
2021/12/30 08:50:53;;;;;;;4.57;2.17;;;8.60;99.90;;;;;;5069282;28;20444;-68
2021/12/30 08:53:25;;;;;;;4.70;2.30;;;8.60;99.90;;;;;;5068403;28;20977;-67
2021/12/30 08:55:52;;;;;;;9.70;2.50;;;8.50;99.90;;;;;;5068546;28;20526;-67
2021/12/30 08:58:20;;;;;;;5.10;2.70;;;8.50;99.90;;;;;;5069056;28;20466;-68
2021/12/30 09:00:47;;;;;;;8.07;2.90;;;8.50;99.90;;;;;;5069113;28;20437;-69
2021/12/30 09:03:16;;;;;;;6.37;3.30;;;8.30;99.90;;;;;;5069142;28;20506;-68
2021/12/30 09:05:44;;;;;;;5.33;2.87;;;8.00;99.90;;;;;;5068791;28;20487;-69
2021/12/30 09:08:11;;;;;;;5.37;2.30;;;8.00;99.90;;;;;;5068539;28;20508;-69
2021/12/30 09:10:40;;;;;;;3.50;1.80;;;8.10;99.90;;;;;;5068856;28;20453;-68
2021/12/30 09:13:08;;;;;;;5.30;2.50;;;8.20;99.90;;;;;;5068291;28;20448;-67
2021/12/30 09:15:36;;;;;;;4.00;1.73;;;8.30;99.90;;;;;;5068475;28;20597;-69
2021/12/30 09:18:05;;;;;;;4.97;1.63;;;8.30;99.90;;;;;;5068938;28;20839;-68
2021/12/30 09:20:33;;;;;;;3.57;1.63;;;8.30;99.90;;;;;;5068809;28;20550;-74
2021/12/30 09:23:03;;;;;;;3.50;1.83;;;8.30;99.90;;;;;;5068210;28;20866;-68
2021/12/30 09:25:30;;;;;;;3.70;1.63;;;8.40;99.90;;;;;;5068308;28;21037;-69
2021/12/30 09:27:58;;;;;;;5.23;1.53;;;8.50;99.90;;;;;;5068665;28;20460;-72
2021/12/30 09:30:26;;;;;;;4.60;1.90;;;8.40;99.90;;;;;;5068702;28;20449;-73
2021/12/30 09:32:57;;;;;;;5.60;2.20;;;8.40;99.90;;;;;;5068641;28;20457;-71
2021/12/30 09:35:25;;;;;;;5.43;2.17;;;8.50;99.90;;;;;;5068280;28;20472;-69
2021/12/30 09:37:52;;;;;;;4.93;2.10;;;8.50;99.90;;;;;;5068407;28;20452;-70
2021/12/30 09:40:20;;;;;;;4.77;2.37;;;8.60;99.90;;;;;;5068105;28;20468;-67
2021/12/30 09:42:52;;;;;;;5.10;2.13;;;8.60;99.90;;;;;;5067326;28;20461;-67
2021/12/30 09:45:20;;;;;;;6.27;2.70;;;8.70;99.90;;;;;;5071524;28;20523;-68
2021/12/30 09:47:50;;;;;;;6.70;3.30;;;8.60;99.90;;;;;;5071977;28;20452;-68
2021/12/30 09:50:19;;;;;;;10.00;3.73;;;8.70;99.90;;;;;;5071919;28;20453;-67
2021/12/30 09:52:46;;;;;;;7.50;3.60;;;8.60;99.90;;;;;;5071658;28;20937;-68
2021/12/30 09:55:14;;;;;;;7.43;3.40;;;8.80;99.90;;;;;;5070966;28;20515;-68
2021/12/30 09:57:41;;;;;;;6.03;2.83;;;8.80;99.90;;;;;;5071452;28;20826;-69
2021/12/30 10:00:13;;;;;;;6.50;3.87;;;8.80;99.90;;;;;;5071140;28;21020;-70
2021/12/30 10:02:42;;;;;;;8.27;4.60;;;8.50;99.90;;;;;;5071837;28;20856;-67
2021/12/30 10:05:11;;;;;;;6.87;3.60;;;8.50;99.90;;;;;;5071561;28;20504;-68
2021/12/30 10:07:41;;;;;;;5.77;3.50;;;8.60;99.90;;;;;;5071597;28;20824;-69
2021/12/30 10:10:27;;;;;;;16.80;4.50;;;8.60;99.90;;;;;;5071437;28;20456;-69
2021/12/30 10:12:54;;;;;;;9.07;4.87;;;8.70;99.90;;;;;;5071530;28;20535;-68
2021/12/30 10:15:25;;;;;;;7.43;4.40;;;8.80;99.90;;;;;;5070915;28;20826;-69
2021/12/30 10:17:57;;;;;;;7.00;3.83;;;8.80;99.90;;;;;;5071622;28;20471;-67
2021/12/30 10:20:29;;;;;;;7.93;4.70;;;8.70;99.90;;;;;;5071615;28;20510;-69
2021/12/30 10:23:09;;;;;;;8.17;4.03;;;8.80;99.90;;;;;;5071344;28;20502;-70
2021/12/30 10:25:39;;;;;;;7.60;4.17;;;8.80;99.90;;;;;;5070927;28;20496;-69
2021/12/30 10:28:28;;;;;;;6.30;3.60;;;8.70;99.90;;;;;;5071040;28;20568;-69
2021/12/30 10:30:59;;;;;;;6.00;3.43;;;8.60;99.90;;;;;;5069903;28;20452;-67
2021/12/30 10:33:28;;;;;;;4.50;2.40;;;8.70;99.90;;;;;;5071321;28;20529;-68
2021/12/30 10:35:57;;;;;;;5.00;2.43;;;8.80;99.90;;;;;;5070964;28;20546;-70
2021/12/30 10:38:30;;;;;;;5.80;2.77;;;9.00;99.90;;;;;;5071515;28;20810;-68
2021/12/30 10:41:03;;;;;;;6.23;2.40;;;9.00;99.90;;;;;;5071274;28;20502;-69
2021/12/30 10:43:34;;;;;;;6.30;2.80;;;9.10;99.90;;;;;;5071290;28;20918;-68
2021/12/30 10:46:11;;;;;;;5.67;2.80;;;9.00;99.90;;;;;;5070995;28;20500;-68
2021/12/30 10:49:00;;;;;;;6.90;4.10;;;8.90;99.90;;;;;;5070767;28;20460;-67
2021/12/30 10:51:34;;;;;;;8.00;2.80;;;8.80;99.90;;;;;;5070766;28;20976;-69
2021/12/30 10:54:11;;;;;;;5.97;3.13;;;8.90;99.90;;;;;;5070585;28;20550;-69
2021/12/30 10:56:40;;;;;;;6.80;4.23;;;8.80;99.90;;;;;;5069697;28;21064;-68
2021/12/30 10:59:12;;;;;;;8.23;3.53;;;9.00;99.90;;;;;;5070768;28;20874;-68
2021/12/30 11:01:41;;;;;;;6.83;3.00;;;9.10;99.90;;;;;;5070681;28;20448;-67
2021/12/30 11:04:10;;;;;;;5.93;3.50;;;9.10;99.90;;;;;;5070764;28;20453;-69
2021/12/30 11:06:37;;;;;;;6.40;3.27;;;9.00;99.90;;;;;;5070427;28;20488;-68
2021/12/30 11:09:09;;;;;;;5.23;2.80;;;9.00;99.90;;;;;;5070553;28;20451;-68
2021/12/30 11:11:40;;;;;;;5.87;3.23;;;9.00;99.90;;;;;;5068994;28;21014;-67
2021/12/30 11:14:09;;;;;;;6.30;3.17;;;8.90;99.90;;;;;;5070020;28;20456;-65
2021/12/30 11:16:59;;;;;;;6.57;3.27;;;9.00;99.90;;;;;;5070444;28;20461;-69
2021/12/30 11:19:28;;;;;;;6.47;3.70;;;9.00;99.90;;;;;;5070123;28;20457;-69
2021/12/30 11:21:57;;;;;;;7.77;3.87;;;9.10;99.90;;;;;;5070166;28;20461;-68
2021/12/30 11:24:27;;;;;;;7.30;3.30;;;9.00;99.90;;;;;;5070144;28;20464;-67
2021/12/30 11:26:54;;;;;;;4.37;2.67;;;8.90;99.90;;;;;;5070179;28;20892;-67
2021/12/30 11:29:23;;;;;;;6.03;2.77;;;8.90;99.90;;;;;;5069641;28;20460;-68
2021/12/30 11:31:50;;;;;;;6.50;3.43;;;9.00;99.90;;;;;;5070289;28;20603;-68
2021/12/30 11:34:19;;;;;;;6.53;3.93;;;9.00;99.90;;;;;;5068735;28;20511;-69
2021/12/30 11:36:46;;;;;;;8.43;4.57;;;9.00;99.90;;;;;;5069934;28;20896;-67
2021/12/30 11:39:14;;;;;;;6.80;4.30;;;9.00;99.90;;;;;;5069829;28;20517;-67
2021/12/30 11:41:45;;;;;;;6.27;3.70;;;9.10;99.90;;;;;;5069831;28;20449;-67
2021/12/30 11:44:32;;;;;;;7.07;4.00;;;9.30;99.90;;;;;;5069125;28;20980;-68
2021/12/30 11:46:59;;;;;;;6.13;3.50;;;9.50;99.90;;;;;;5069597;28;20500;-67
2021/12/30 11:49:50;;;;;;;7.80;4.43;;;9.60;99.90;;;;;;5069608;28;20449;-66
2021/12/30 11:52:46;;;;;;;8.00;4.50;;;9.70;99.90;;;;;;5069781;28;20633;-66
2021/12/30 11:56:07;;;;;;;8.53;3.57;;;9.70;99.90;;;;;;5068880;28;20588;-66
2021/12/30 11:58:47;;;;;;;4.87;2.90;;;9.60;99.90;;;;;;5026773;28;20443;-68
2021/12/30 12:01:32;;;;;;;5.07;2.37;;;9.10;99.90;;;;;;5027049;28;20438;-67
2021/12/30 12:04:02;;;;;;;5.70;2.57;;;9.10;99.90;;;;;;5054472;28;20444;-67
2021/12/30 12:06:33;;;;;;;5.60;2.33;;;9.20;99.90;;;;;;5069242;28;20493;-67
2021/12/30 12:09:02;;;;;;;5.23;2.17;;;9.40;99.90;;;;;;5069538;28;20503;-67
2021/12/30 12:11:32;;;;;;;5.73;2.13;;;9.60;99.90;;;;;;5069640;28;20476;-67
2021/12/30 12:14:15;;;;;;;5.50;2.63;;;9.50;99.90;;;;;;5069341;28;20944;-69
2021/12/30 12:16:55;;;;;;;6.10;2.23;;;9.40;99.90;;;;;;5069611;28;20472;-67
2021/12/30 12:19:33;;;;;;;6.03;2.70;;;9.20;99.90;;;;;;5069477;28;20456;-67
2021/12/30 12:22:01;;;;;;;6.00;2.83;;;9.30;99.90;;;;;;5069412;28;20483;-67
2021/12/30 12:24:34;;;;;;;6.47;3.17;;;9.30;99.90;;;;;;5069197;28;20453;-68
2021/12/30 12:27:04;;;;;;;7.70;3.60;;;9.30;99.90;;;;;;5069146;28;20574;-68
2021/12/30 12:29:34;;;;;;;6.00;3.27;;;9.30;99.90;;;;;;5069002;28;20456;-66
2021/12/30 12:32:09;;;;;;;6.57;2.93;;;9.30;99.90;;;;;;5069472;28;20457;-66
2021/12/30 12:34:45;;;;;;;6.23;3.13;;;9.40;99.90;;;;;;5068697;28;20530;-67
2021/12/30 12:37:58;;;;;;;7.47;3.23;;;9.40;99.90;;;;;;5069320;28;20452;-67
2021/12/30 12:40:29;;;;;;;4.63;2.37;;;9.40;99.90;;;;;;5069391;28;20502;-67
2021/12/30 12:43:15;;;;;;;4.60;2.30;;;9.40;99.90;;;;;;5068868;28;20922;-67
2021/12/30 12:46:04;;;;;;;5.80;2.37;;;9.20;99.90;;;;;;5069098;28;20626;-67
2021/12/30 12:48:42;;;;;;;5.50;2.33;;;9.20;99.90;;;;;;5069023;28;20452;-67
2021/12/30 12:51:26;;;;;;;4.60;2.30;;;9.20;99.90;;;;;;5069296;28;20812;-69
2021/12/30 12:54:03;;;;;;;6.23;4.30;;;9.40;99.90;;;;;;5068603;28;20481;-69
2021/12/30 12:56:36;;;;;;;4.23;2.03;;;9.30;99.90;;;;;;5068839;28;20475;-68
2021/12/30 12:59:06;;;;;;;4.23;2.03;;;9.50;99.90;;;;;;5068973;28;20944;-68
2021/12/30 13:01:35;;;;;;;3.90;1.77;;;9.60;99.90;;;;;;5069358;28;20453;-69
2021/12/30 13:04:07;;;;;;;4.43;2.10;;;9.50;99.90;;;;;;5068968;28;20514;-69
2021/12/30 13:06:39;;;;;;;4.77;2.10;;;9.40;99.90;;;;;;5068828;28;20492;-69
2021/12/30 13:09:11;;;;;;;4.40;2.33;;;9.40;99.90;;;;;;5068539;28;20453;-69